createdAt,value
2022-10-14T00:03:23.795Z,443.09
2022-10-14T00:08:55.621Z,443.09
2022-10-14T00:14:27.277Z,443.09
2022-10-14T00:19:59.038Z,443.18
2022-10-14T00:31:00.779Z,443.18
2022-10-14T00:36:32.520Z,443.18
2022-10-14T00:42:04.603Z,443.35
2022-10-14T00:47:36.706Z,443.52
2022-10-14T00:53:08.497Z,443.70
2022-10-14T00:58:40.631Z,443.52
2022-10-14T01:04:12.469Z,443.87
2022-10-14T01:09:44.517Z,443.87
2022-10-14T01:15:16.293Z,444.04
2022-10-14T01:20:48.383Z,443.87
2022-10-14T01:26:20.227Z,443.70
2022-10-14T01:31:52.346Z,444.22
2022-10-14T01:37:24.384Z,444.22
2022-10-14T01:42:56.106Z,444.22
2022-10-14T01:48:27.835Z,444.39
2022-10-14T01:54:01.463Z,444.22
2022-10-14T01:59:33.550Z,444.22
2022-10-14T02:05:05.287Z,444.22
2022-10-14T02:10:37.084Z,444.04
2022-10-14T02:16:09.284Z,443.70
2022-10-14T02:21:41.555Z,443.52
2022-10-14T02:27:15.643Z,443.35
2022-10-14T02:32:47.525Z,443.35
2022-10-14T02:40:41.857Z,443.52
2022-10-14T02:46:13.380Z,443.35
2022-10-14T02:51:45.654Z,443.35
2022-10-14T02:57:17.600Z,443.09
2022-10-14T03:08:18.978Z,443.18
2022-10-14T03:13:50.821Z,443.18
2022-10-14T03:19:22.608Z,443.35
2022-10-14T03:24:54.378Z,443.35
2022-10-14T03:30:26.210Z,443.52
2022-10-14T03:38:18.677Z,444.04
2022-10-14T03:43:50.339Z,444.04
2022-10-14T03:49:22.036Z,444.22
2022-10-14T03:54:54.117Z,444.22
2022-10-14T04:00:25.817Z,444.57
2022-10-14T04:11:27.307Z,445.26
2022-10-14T04:16:59.206Z,445.78
2022-10-14T04:22:30.867Z,446.48
2022-10-14T04:28:02.745Z,446.65
2022-10-14T04:33:34.550Z,447.00
2022-10-14T04:39:06.280Z,447.00
2022-10-14T04:44:37.992Z,447.17
2022-10-14T04:50:10.211Z,447.61
2022-10-14T04:55:42.449Z,448.13
2022-10-14T05:01:14.507Z,448.30
2022-10-14T05:06:46.127Z,448.83
2022-10-14T05:12:18.066Z,449.17
2022-10-14T05:17:49.849Z,449.52
2022-10-14T05:23:21.552Z,449.69
2022-10-14T05:28:53.370Z,449.69
2022-10-14T05:34:25.028Z,450.04
2022-10-14T05:39:56.916Z,450.39
2022-10-14T05:45:28.650Z,450.56
2022-10-14T05:51:00.095Z,450.74
2022-10-14T05:56:32.458Z,450.91
2022-10-14T06:02:04.430Z,451.26
2022-10-14T06:07:36.242Z,451.35
2022-10-14T06:13:08.044Z,451.52
2022-10-14T06:18:39.639Z,451.52
2022-10-14T06:24:11.355Z,451.87
2022-10-14T06:29:43.059Z,452.04
2022-10-14T06:35:15.001Z,451.69
2022-10-14T06:40:46.795Z,451.35
2022-10-14T06:46:18.387Z,451.26
2022-10-14T06:51:49.905Z,450.74
2022-10-14T06:57:21.612Z,451.09
2022-10-14T07:02:53.537Z,451.26
2022-10-14T07:13:54.593Z,451.69
2022-10-14T07:19:26.195Z,452.04
2022-10-14T07:24:57.961Z,452.56
2022-10-14T07:30:30.081Z,453.09
2022-10-14T07:36:01.661Z,453.09
2022-10-14T07:41:33.216Z,452.91
2022-10-14T07:52:36.707Z,453.09
2022-10-14T07:58:08.666Z,453.26
2022-10-14T08:03:40.639Z,452.91
2022-10-14T08:14:44.410Z,453.26
2022-10-14T08:20:16.269Z,453.43
2022-10-14T08:31:17.525Z,454.13
2022-10-14T08:36:49.435Z,454.13
2022-10-14T08:42:21.874Z,454.13
2022-10-14T08:47:53.458Z,454.30
2022-10-14T08:53:25.463Z,454.65
2022-10-14T08:58:57.050Z,455.00
2022-10-14T09:04:28.703Z,455.35
2022-10-14T09:10:00.890Z,455.52
2022-10-14T09:21:04.037Z,455.78
2022-10-14T09:26:35.540Z,455.70
2022-10-14T09:32:07.546Z,455.78
2022-10-14T09:37:39.315Z,456.13
2022-10-14T09:43:11.386Z,456.13
2022-10-14T09:48:43.510Z,456.65
2022-10-14T09:54:15.803Z,457.17
2022-10-14T09:59:47.439Z,457.52
2022-10-14T10:05:19.190Z,457.35
2022-10-14T10:10:51.127Z,457.87
2022-10-14T10:16:22.744Z,457.87
2022-10-14T10:21:54.566Z,458.04
2022-10-14T10:27:26.536Z,458.57
2022-10-14T10:32:58.468Z,459.26
2022-10-14T10:38:30.638Z,459.44
2022-10-14T10:44:02.289Z,460.22
2022-10-14T10:49:39.917Z,460.74
2022-10-14T10:55:11.853Z,461.79
2022-10-14T11:00:43.996Z,462.48
2022-10-14T11:06:15.776Z,462.83
2022-10-14T11:11:47.501Z,463.35
2022-10-14T11:22:48.903Z,464.40
2022-10-14T11:28:26.640Z,465.01
2022-10-14T11:33:58.394Z,465.53
2022-10-14T11:39:31.985Z,466.75
2022-10-14T11:45:02.231Z,467.27
2022-10-14T11:50:34.072Z,468.14
2022-10-14T11:56:05.958Z,468.67
2022-10-14T12:01:38.316Z,468.93
2022-10-14T12:07:09.635Z,468.93
2022-10-14T12:12:41.605Z,469.45
2022-10-14T12:18:13.074Z,469.62
2022-10-14T12:23:45.014Z,470.15
2022-10-14T12:29:16.945Z,470.84
2022-10-14T12:34:48.785Z,471.02
2022-10-14T12:40:20.573Z,471.89
2022-10-14T12:45:52.138Z,472.24
2022-10-14T12:51:23.908Z,472.59
2022-10-14T12:56:55.677Z,472.76
2022-10-14T13:02:27.504Z,473.37
2022-10-14T13:07:59.369Z,473.55
2022-10-14T13:13:30.802Z,473.89
2022-10-14T13:19:02.798Z,474.07
2022-10-14T13:24:34.675Z,474.59
2022-10-14T13:30:06.251Z,474.77
2022-10-14T13:41:07.722Z,474.77
2022-10-14T13:46:39.722Z,474.59
2022-10-14T13:52:11.755Z,474.42
2022-10-14T13:58:10.925Z,474.24
2022-10-14T14:03:15.946Z,473.89
2022-10-14T14:08:47.711Z,472.76
2022-10-14T14:14:19.401Z,471.89
2022-10-14T14:19:51.774Z,471.02
2022-10-14T14:25:34.139Z,470.84
2022-10-14T14:30:55.459Z,470.32
2022-10-14T14:36:39.822Z,470.15
2022-10-14T14:41:59.276Z,470.32
2022-10-14T14:47:31.222Z,470.67
2022-10-14T14:53:03.314Z,471.72
2022-10-14T14:58:41.905Z,472.24
2022-10-14T15:04:14.645Z,472.41
2022-10-14T15:09:47.215Z,472.59
2022-10-14T15:20:48.834Z,473.20
2022-10-14T15:26:20.753Z,473.37
2022-10-14T15:31:54.951Z,474.24
2022-10-14T15:37:26.708Z,474.77
2022-10-14T15:42:58.893Z,475.29
2022-10-14T15:48:30.797Z,475.64
2022-10-14T15:54:02.734Z,475.99
2022-10-14T15:59:35.611Z,476.68
2022-10-14T16:05:19.194Z,476.68
2022-10-14T16:10:39.263Z,476.68
2022-10-14T16:16:11.276Z,477.21
2022-10-14T16:21:43.042Z,477.38
2022-10-14T16:27:14.936Z,477.38
2022-10-14T16:32:46.685Z,477.21
2022-10-14T16:38:18.408Z,477.21
2022-10-14T16:43:50.241Z,477.03
2022-10-14T16:49:22.257Z,476.68
2022-10-14T16:51:34.304Z,475.99
2022-10-14T16:57:06.160Z,475.99
2022-10-14T17:02:37.866Z,476.16
2022-10-14T17:08:09.649Z,476.33
2022-10-14T17:13:41.606Z,476.51
2022-10-14T17:19:13.192Z,476.68
2022-10-14T17:24:47.347Z,476.51
2022-10-14T17:30:19.210Z,476.51
2022-10-14T17:35:50.708Z,476.51
2022-10-14T17:41:22.827Z,476.51
2022-10-14T17:52:24.285Z,476.51
2022-10-14T17:57:55.871Z,476.86
2022-10-14T18:03:27.582Z,476.86
2022-10-14T18:08:59.505Z,476.86
2022-10-14T18:14:31.645Z,477.21
2022-10-14T18:22:24.234Z,476.68
2022-10-14T18:33:26.068Z,476.86
2022-10-14T18:38:57.605Z,476.86
2022-10-14T18:44:29.483Z,476.68
2022-10-14T19:01:02.590Z,477.99
2022-10-14T19:06:34.079Z,478.17
2022-10-14T19:12:08.103Z,478.17
2022-10-14T19:17:40.075Z,478.51
2022-10-14T19:23:11.607Z,478.34
2022-10-14T19:28:43.732Z,478.69
2022-10-14T19:34:15.278Z,479.21
2022-10-14T19:39:47.135Z,479.56
2022-10-14T19:45:18.738Z,480.26
2022-10-14T19:50:50.678Z,480.61
2022-10-14T19:56:22.646Z,480.96
2022-10-14T20:12:55.400Z,481.48
2022-10-14T20:18:28.273Z,481.30
2022-10-14T20:23:59.705Z,481.48
2022-10-14T20:29:31.523Z,481.30
2022-10-14T20:35:03.328Z,481.30
2022-10-14T20:40:34.924Z,481.48
2022-10-14T20:46:06.866Z,481.92
2022-10-14T20:51:38.598Z,482.44
2022-10-14T20:57:10.587Z,482.96
2022-10-14T21:08:14.118Z,484.18
2022-10-14T21:13:45.897Z,485.06
2022-10-14T21:19:17.910Z,485.58
2022-10-14T21:24:49.616Z,486.45
2022-10-14T21:30:21.037Z,486.89
2022-10-14T21:35:52.816Z,487.59
2022-10-14T21:41:25.039Z,488.11
2022-10-14T21:46:56.917Z,488.63
2022-10-14T21:52:28.659Z,488.81
2022-10-14T21:58:00.590Z,489.33
2022-10-14T22:03:31.921Z,489.86
2022-10-14T22:09:04.078Z,490.55
2022-10-14T22:14:35.705Z,491.08
2022-10-14T22:20:07.787Z,491.69
2022-10-14T22:25:40.014Z,492.21
2022-10-14T22:31:11.677Z,492.21
2022-10-14T22:36:43.672Z,492.56
2022-10-14T22:42:15.546Z,493.09
2022-10-14T22:47:47.210Z,493.09
2022-10-14T22:58:49.132Z,493.61
2022-10-14T23:04:20.826Z,494.13
2022-10-14T23:09:52.809Z,494.48
2022-10-14T23:15:24.422Z,494.66
2022-10-14T23:20:56.238Z,495.36
2022-10-14T23:26:27.821Z,495.44
2022-10-14T23:31:59.903Z,495.62
2022-10-14T23:37:31.568Z,495.97
2022-10-14T23:43:03.368Z,496.32
2022-10-14T23:48:35.435Z,496.84
2022-10-14T23:54:07.161Z,497.37
2022-10-14T23:59:38.911Z,497.71
